Time;durP1;ratioP1;P1;durP2;ratioP2;P2;SDS_P1;SDS_P2;PMS_P1;PMS_P2;Temp;Humidity;BMP_temperature;BMP_pressure;BME280_temperature;BME280_humidity;BME280_pressure;Samples;Min_cycle;Max_cycle;Signal;HPM_P1;HPM_P2
2023/02/25 00:00:40;;;;;;;20.30;4.45;;;;;;;4.51;100.00;100931.38;10562159;28;20046;-68
2023/02/25 00:05:40;;;;;;;17.85;4.70;;;;;;;4.57;100.00;100939.63;10546444;28;20424;-67
2023/02/25 00:10:41;;;;;;;13.10;4.45;;;;;;;4.63;100.00;100938.19;10546739;28;20024;-67
2023/02/25 00:15:42;;;;;;;14.93;4.60;;;;;;;4.76;100.00;100937.75;10545832;28;20067;-67
2023/02/25 00:20:42;;;;;;;26.63;4.30;;;;;;;4.82;100.00;100948.69;10560872;28;20107;-67
2023/02/25 00:25:43;;;;;;;18.40;3.72;;;;;;;4.80;100.00;100933.75;10560739;28;20024;-67
2023/02/25 00:30:43;;;;;;;17.35;5.78;;;;;;;4.81;100.00;100938.09;10545093;28;20059;-67
2023/02/25 00:35:43;;;;;;;15.65;6.05;;;;;;;4.89;100.00;100930.94;10545168;28;20028;-67
2023/02/25 00:40:44;;;;;;;17.40;5.15;;;;;;;4.99;100.00;100936.19;10543645;28;20551;-67
2023/02/25 00:45:44;;;;;;;18.33;4.78;;;;;;;4.99;100.00;100956.81;10543471;28;20035;-67
2023/02/25 00:50:45;;;;;;;16.35;4.53;;;;;;;4.78;100.00;100947.28;10545025;28;20157;-67
2023/02/25 00:55:45;;;;;;;14.32;3.38;;;;;;;4.62;100.00;100958.75;10543759;28;20062;-67
2023/02/25 01:00:46;;;;;;;10.65;3.78;;;;;;;4.56;100.00;100946.00;10544055;28;20032;-67
2023/02/25 01:05:48;;;;;;;7.68;3.40;;;;;;;4.55;100.00;100946.16;10543387;28;20104;-67
2023/02/25 01:10:49;;;;;;;11.93;4.22;;;;;;;4.56;100.00;100955.88;10542458;28;20352;-68
2023/02/25 01:15:49;;;;;;;7.45;2.47;;;;;;;4.59;100.00;100974.34;10543416;28;20107;-67
2023/02/25 01:20:49;;;;;;;11.18;3.38;;;;;;;4.65;100.00;100965.66;10543302;28;20062;-67
2023/02/25 01:25:50;;;;;;;17.00;3.70;;;;;;;4.71;100.00;100972.25;10558951;28;20035;-68
2023/02/25 01:30:50;;;;;;;14.30;3.33;;;;;;;4.72;100.00;100965.88;10542296;28;20031;-67
2023/02/25 01:35:51;;;;;;;11.43;2.85;;;;;;;4.75;100.00;100954.81;10542549;28;20042;-67
2023/02/25 01:40:57;;;;;;;6.78;3.45;;;;;;;4.82;100.00;100967.47;10543092;28;20071;-67
2023/02/25 01:45:57;;;;;;;18.90;3.97;;;;;;;4.81;100.00;100952.34;10542367;28;20031;-67
2023/02/25 01:51:03;;;;;;;13.05;4.55;;;;;;;4.76;100.00;100964.56;10542407;28;20024;-67
2023/02/25 01:56:04;;;;;;;6.30;3.75;;;;;;;4.75;100.00;100957.50;10543706;28;20028;-67
2023/02/25 02:01:13;;;;;;;9.85;3.50;;;;;;;4.81;100.00;100949.66;10541800;28;20036;-67
2023/02/25 02:06:20;;;;;;;14.07;5.07;;;;;;;4.84;100.00;100986.91;10557002;28;20028;-67
2023/02/25 02:11:20;;;;;;;6.05;3.47;;;;;;;4.52;100.00;100971.44;10539452;28;20031;-67
2023/02/25 02:16:36;;;;;;;7.63;3.60;;;;;;;4.07;100.00;100983.13;10541722;28;20028;-67
2023/02/25 02:21:40;;;;;;;5.22;2.03;;;;;;;3.82;100.00;100973.16;10541055;28;20040;-67
2023/02/25 02:26:45;;;;;;;7.80;3.28;;;;;;;3.65;100.00;100967.63;10539629;28;20066;-67
2023/02/25 02:31:57;;;;;;;7.25;3.08;;;;;;;3.57;100.00;100977.41;10556383;28;20020;-67
2023/02/25 02:37:23;;;;;;;14.05;3.60;;;;;;;3.58;100.00;100961.22;10541311;28;20024;-67
2023/02/25 02:42:29;;;;;;;18.83;3.43;;;;;;;3.66;100.00;100961.28;10555296;28;20063;-67
2023/02/25 02:47:33;;;;;;;14.98;3.42;;;;;;;3.62;100.00;100964.44;10555187;28;20478;-67
2023/02/25 02:52:37;;;;;;;8.60;2.90;;;;;;;3.67;100.00;100973.69;10522097;28;20032;-67
2023/02/25 02:57:38;;;;;;;8.43;3.90;;;;;;;3.92;100.00;100968.56;10539279;28;20051;-67
2023/02/25 03:02:38;;;;;;;20.50;3.65;;;;;;;4.11;100.00;100955.03;10556237;28;20039;-67
2023/02/25 03:07:51;;;;;;;33.45;6.30;;;;;;;4.10;100.00;100974.78;10538664;28;20110;-67
2023/02/25 03:12:51;;;;;;;14.63;4.32;;;;;;;4.16;100.00;100982.22;10555293;28;20381;-67
2023/02/25 03:17:56;;;;;;;15.25;4.70;;;;;;;4.25;100.00;100960.84;10539992;28;20032;-67
2023/02/25 03:22:58;;;;;;;7.68;3.30;;;;;;;4.47;100.00;100971.09;10555197;28;20044;-67
2023/02/25 03:28:02;;;;;;;10.95;3.15;;;;;;;4.60;100.00;100984.91;10538883;28;20082;-67
2023/02/25 03:33:05;;;;;;;14.60;4.22;;;;;;;4.55;100.00;100987.22;10555183;28;20028;-67
2023/02/25 03:38:09;;;;;;;22.02;4.38;;;;;;;4.30;100.00;100971.94;10554127;28;20032;-67
2023/02/25 03:43:15;;;;;;;18.90;3.75;;;;;;;4.14;100.00;100975.31;10538003;28;20031;-67
2023/02/25 03:48:16;;;;;;;12.88;3.72;;;;;;;4.08;100.00;100981.28;10537992;28;20055;-67
2023/02/25 03:53:16;;;;;;;16.15;4.63;;;;;;;4.13;100.00;100995.91;10538419;28;20456;-67
2023/02/25 03:58:17;;;;;;;10.20;4.53;;;;;;;4.16;100.00;100978.69;10543544;28;20104;-67
2023/02/25 04:03:17;;;;;;;19.25;4.13;;;;;;;4.03;100.00;100980.91;10545679;28;20474;-69
2023/02/25 04:08:18;;;;;;;10.38;2.70;;;;;;;4.06;100.00;100985.97;10548140;28;20159;-67
2023/02/25 04:13:19;;;;;;;6.88;2.67;;;;;;;3.97;100.00;100983.19;10546077;28;20451;-67
2023/02/25 04:18:20;;;;;;;15.90;3.75;;;;;;;3.89;100.00;101012.59;10546927;28;20047;-67
2023/02/25 04:23:21;;;;;;;12.55;3.58;;;;;;;4.03;100.00;100995.16;10546535;28;20135;-68
2023/02/25 04:28:21;;;;;;;12.65;2.92;;;;;;;3.99;100.00;101003.63;10546068;28;20380;-67
2023/02/25 04:33:22;;;;;;;11.35;3.22;;;;;;;3.97;100.00;101012.69;10561348;28;20084;-67
2023/02/25 04:38:22;;;;;;;6.57;3.17;;;;;;;4.04;100.00;101018.28;10543297;28;20103;-67
2023/02/25 04:43:23;;;;;;;9.80;2.83;;;;;;;4.13;100.00;101019.19;10560002;28;20031;-67
2023/02/25 04:48:23;;;;;;;15.15;4.57;;;;;;;4.25;100.00;101017.16;10544751;28;20089;-67
2023/02/25 04:53:24;;;;;;;8.00;2.70;;;;;;;4.31;100.00;101011.16;10543097;28;20490;-67
2023/02/25 04:58:24;;;;;;;4.43;2.50;;;;;;;4.37;100.00;101021.25;10544930;28;20115;-67
2023/02/25 05:03:25;;;;;;;16.67;4.05;;;;;;;4.39;100.00;101019.28;10543377;28;20065;-67
2023/02/25 05:08:25;;;;;;;5.90;3.40;;;;;;;4.41;100.00;101026.16;10558647;28;20166;-67
2023/02/25 05:13:26;;;;;;;21.85;4.80;;;;;;;4.38;100.00;101018.44;10542415;28;20107;-67
2023/02/25 05:18:26;;;;;;;23.83;4.53;;;;;;;4.39;100.00;101021.94;10558726;28;20024;-67
2023/02/25 05:23:27;;;;;;;10.93;3.28;;;;;;;4.46;100.00;101022.16;10526629;28;20131;-67
2023/02/25 05:28:27;;;;;;;21.40;3.65;;;;;;;4.39;100.00;101028.16;10559404;28;20115;-67
2023/02/25 05:33:28;;;;;;;12.43;3.53;;;;;;;4.27;100.00;101029.38;10542182;28;20059;-67
2023/02/25 05:38:29;;;;;;;16.60;4.47;;;;;;;4.04;100.00;101018.28;10542637;28;20028;-67
2023/02/25 05:43:29;;;;;;;15.13;3.85;;;;;;;3.90;100.00;101022.31;10542446;28;20031;-68
2023/02/25 05:48:31;;;;;;;10.27;4.03;;;;;;;3.92;100.00;101044.47;10542258;28;20060;-67
2023/02/25 05:53:31;;;;;;;12.20;3.83;;;;;;;4.17;100.00;101050.06;10557828;28;20035;-67
2023/02/25 05:58:32;;;;;;;5.68;3.05;;;;;;;4.40;100.00;101045.06;10541534;28;20027;-67
2023/02/25 06:03:32;;;;;;;5.80;2.95;;;;;;;4.42;100.00;101045.78;10540494;28;20027;-67
2023/02/25 06:08:33;;;;;;;15.25;2.83;;;;;;;4.30;100.00;101033.59;10557811;28;20036;-67
2023/02/25 06:13:33;;;;;;;9.02;2.28;;;;;;;4.19;100.00;101040.03;10540677;28;20031;-67
2023/02/25 06:18:35;;;;;;;7.32;3.42;;;;;;;3.89;100.00;101035.84;10541150;28;20046;-67
2023/02/25 06:23:37;;;;;;;8.32;2.70;;;;;;;3.66;100.00;101036.25;10559727;28;20063;-67
2023/02/25 06:28:37;;;;;;;18.17;2.90;;;;;;;3.65;100.00;101047.16;10558589;28;20118;-67
2023/02/25 06:33:39;;;;;;;28.65;4.28;;;;;;;3.64;100.00;101061.53;10556138;28;20123;-67
2023/02/25 06:38:39;;;;;;;20.42;4.22;;;;;;;3.95;100.00;101062.03;10540191;28;20028;-67
2023/02/25 06:43:40;;;;;;;12.30;3.45;;;;;;;4.25;100.00;101092.19;10540811;28;20525;-67
2023/02/25 06:48:40;;;;;;;6.18;2.50;;;;;;;4.20;100.00;101100.69;10538774;28;20447;-66
2023/02/25 06:53:42;;;;;;;15.65;2.88;;;;;;;4.15;100.00;101084.22;10539474;28;20036;-66
2023/02/25 06:58:42;;;;;;;3.60;2.05;;;;;;;4.01;100.00;101093.59;10555814;28;20089;-67
2023/02/25 07:03:43;;;;;;;10.52;2.05;;;;;;;3.76;100.00;101095.13;10539476;28;20132;-67
2023/02/25 07:08:44;;;;;;;6.82;2.25;;;;;;;3.65;100.00;101119.44;10555835;28;20032;-67
2023/02/25 07:13:48;;;;;;;3.78;2.53;;;;;;;3.70;100.00;101141.25;10554617;28;20032;-67
2023/02/25 07:18:49;;;;;;;6.88;2.92;;;;;;;3.49;100.00;101131.63;10555315;28;20425;-66
2023/02/25 07:23:50;;;;;;;15.13;3.20;;;;;;;3.39;100.00;101114.75;10539619;28;20139;-67
2023/02/25 07:28:50;;;;;;;15.68;2.65;;;;;;;3.43;100.00;101126.00;10539434;28;20459;-66
2023/02/25 07:33:52;;;;;;;9.02;3.10;;;;;;;3.47;100.00;101127.38;10545594;28;20089;-67
2023/02/25 07:38:53;;;;;;;16.23;3.83;;;;;;;3.52;100.00;101126.97;10562620;28;20028;-67
2023/02/25 07:43:54;;;;;;;8.25;2.78;;;;;;;3.88;100.00;101131.47;10546182;28;20422;-67
2023/02/25 07:48:54;;;;;;;7.80;3.05;;;;;;;4.64;100.00;101119.56;10545730;28;20020;-67
2023/02/25 07:53:56;;;;;;;11.27;2.75;;;;;;;5.87;100.00;101125.75;10546374;28;20103;-67
2023/02/25 07:58:56;;;;;;;19.70;4.60;;;;;;;6.95;100.00;101132.91;10546709;28;20034;-67
2023/02/25 08:03:58;;;;;;;17.30;4.03;;;;;;;8.28;100.00;101125.16;10544725;28;20135;-67
2023/02/25 08:08:58;;;;;;;14.05;4.53;;;;;;;9.36;100.00;101118.81;10545219;28;20134;-68
2023/02/25 08:13:59;;;;;;;16.85;4.43;;;;;;;9.89;100.00;101121.44;10545487;28;20055;-67
2023/02/25 08:19:00;;;;;;;38.47;4.55;;;;;;;8.99;100.00;101138.56;10561791;28;20031;-67
2023/02/25 08:24:00;;;;;;;19.13;3.90;;;;;;;8.27;100.00;101150.47;10544414;28;20131;-67
2023/02/25 08:29:01;;;;;;;16.80;4.43;;;;;;;8.48;100.00;101139.06;10546211;28;20180;-67
2023/02/25 08:34:01;;;;;;;31.90;4.85;;;;;;;8.98;100.00;101153.09;10560690;28;20123;-67
2023/02/25 08:39:02;;;;;;;18.33;3.67;;;;;;;9.21;100.00;101144.97;10547324;28;20110;-67
2023/02/25 08:44:03;;;;;;;23.70;3.95;;;;;;;9.83;100.00;101141.97;10545331;28;20036;-66
2023/02/25 08:49:03;;;;;;;7.32;2.90;;;;;;;8.90;100.00;101156.69;10544862;28;20394;-67
2023/02/25 08:54:06;;;;;;;22.70;4.22;;;;;;;8.13;100.00;101170.09;10560237;28;20157;-67
2023/02/25 08:59:07;;;;;;;21.42;5.53;;;;;;;8.85;100.00;101156.41;10543804;28;20111;-67
2023/02/25 09:04:07;;;;;;;7.22;2.22;;;;;;;9.50;100.00;101153.13;10544719;28;20034;-68
2023/02/25 09:09:08;;;;;;;6.95;2.95;;;;;;;9.07;100.00;101177.16;10543864;28;20433;-67
2023/02/25 09:14:09;;;;;;;12.98;3.85;;;;;;;9.53;100.00;101152.75;10543901;28;20468;-67
2023/02/25 09:19:11;;;;;;;18.40;4.15;;;;;;;8.79;100.00;101174.16;10543400;28;20357;-67
2023/02/25 09:24:11;;;;;;;8.07;2.40;;;;;;;8.89;100.00;101179.31;10541798;28;20377;-67
2023/02/25 09:29:12;;;;;;;7.00;2.75;;;;;;;9.10;100.00;101180.53;10558015;28;20110;-67
2023/02/25 09:34:13;;;;;;;11.68;3.25;;;;;;;9.34;100.00;101199.22;10542001;28;20028;-67
2023/02/25 09:39:13;;;;;;;11.95;2.78;;;;;;;8.38;100.00;101211.34;10541898;28;20172;-67
2023/02/25 09:44:31;;;;;;;7.30;3.33;;;;;;;7.98;100.00;101218.53;10542839;28;20067;-67
2023/02/25 09:49:47;;;;;;;6.60;2.72;;;;;;;7.74;100.00;101237.44;10541052;28;20114;-67
2023/02/25 09:54:51;;;;;;;12.10;3.90;;;;;;;7.18;100.00;101237.31;10540009;28;20101;-66
2023/02/25 09:59:52;;;;;;;16.35;4.32;;;;;;;8.79;100.00;101227.31;10540480;28;20032;-67
2023/02/25 10:05:17;;;;;;;16.08;4.13;;;;;;;10.81;100.00;101232.75;10557130;28;20040;-67
2023/02/25 10:10:42;;;;;;;5.00;2.35;;;;;;;9.90;100.00;101245.69;10541291;28;20115;-67
2023/02/25 10:16:09;;;;;;;12.27;3.45;;;;;;;9.13;100.00;101251.25;10554451;28;20027;-67
2023/02/25 10:21:18;;;;;;;8.57;2.90;;;;;;;10.77;100.00;101236.91;10540033;28;20024;-67
2023/02/25 10:26:23;;;;;;;10.18;3.05;;;;;;;11.72;100.00;101243.88;10540823;28;20032;-67
2023/02/25 10:31:24;;;;;;;7.20;2.33;;;;;;;11.97;100.00;101241.59;10539344;28;20089;-67
2023/02/25 10:36:30;;;;;;;7.35;2.65;;;;;;;10.93;100.00;101239.38;10539803;28;20039;-67
2023/02/25 10:41:31;;;;;;;12.07;3.03;;;;;;;9.35;100.00;101249.56;10556453;28;20028;-67
2023/02/25 10:46:41;;;;;;;4.68;2.30;;;;;;;8.42;100.00;101266.63;10539697;28;20039;-67
2023/02/25 10:52:01;;;;;;;17.92;3.47;;;;;;;8.40;100.00;101273.25;10543425;28;20024;-67
2023/02/25 10:57:08;;;;;;;8.07;3.53;;;;;;;10.21;100.00;101279.84;10539916;28;20375;-67
2023/02/25 11:02:35;;;;;;;;;;;;;;;11.06;100.00;101268.47;10540088;28;20070;-69
2023/02/25 11:07:40;;;;;;;6.20;2.08;;;;;;;11.63;100.00;101280.31;10542852;28;19922;-67
2023/02/25 11:12:48;;;;;;;0.82;0.73;;;;;;;11.89;100.00;101273.47;10548959;28;20076;-68
2023/02/25 11:17:48;;;;;;;2.10;1.50;;;;;;;11.96;100.00;101279.78;10548153;28;20085;-67
2023/02/25 11:22:51;;;;;;;6.13;2.22;;;;;;;12.42;100.00;101290.13;10546390;28;20113;-67
2023/02/25 11:27:57;;;;;;;1.85;1.73;;;;;;;12.39;100.00;101296.78;10563653;28;20028;-68
2023/02/25 11:32:57;;;;;;;3.30;2.05;;;;;;;11.47;100.00;101313.97;10546990;28;20036;-67
2023/02/25 11:37:58;;;;;;;6.45;2.08;;;;;;;10.07;100.00;101308.59;10547033;28;20031;-67
2023/02/25 11:43:17;;;;;;;1.48;1.38;;;;;;;9.01;100.00;101328.31;10529119;28;20059;-67
2023/02/25 11:48:29;;;;;;;1.20;1.10;;;;;;;8.30;100.00;101338.16;10547692;28;20085;-67
2023/02/25 11:53:48;;;;;;;4.63;1.50;;;;;;;7.66;100.00;101336.19;10545542;28;20042;-67
2023/02/25 11:59:13;;;;;;;2.40;1.67;;;;;;;7.11;100.00;101361.00;10546414;28;20074;-67
2023/02/25 12:04:33;;;;;;;2.63;1.90;;;;;;;6.57;100.00;101364.97;10546343;28;20032;-66
2023/02/25 12:10:00;;;;;;;9.60;1.70;;;;;;;5.73;100.00;101364.50;10546818;28;20064;-66
2023/02/25 12:15:25;;;;;;;6.30;2.63;;;;;;;5.80;100.00;101357.50;10560023;28;20081;-67
2023/02/25 12:20:55;;;;;;;8.23;2.28;;;;;;;6.11;100.00;101353.59;10545685;28;20057;-67
2023/02/25 12:26:27;;;;;;;4.57;1.45;;;;;;;6.44;100.00;101357.31;10560527;28;20052;-66
2023/02/25 12:31:57;;;;;;;4.50;1.52;;;;;;;6.88;100.00;101349.13;10543689;28;20069;-66
2023/02/25 12:37:01;;;;;;;6.22;1.75;;;;;;;6.85;100.00;101369.16;10542094;28;20040;-66
2023/02/25 12:42:20;;;;;;;6.53;1.92;;;;;;;6.85;100.00;101365.63;10544370;28;20036;-67
2023/02/25 12:47:28;;;;;;;4.97;1.75;;;;;;;8.36;100.00;101368.00;10561767;28;20036;-67
2023/02/25 12:52:38;;;;;;;5.18;2.40;;;;;;;8.88;100.00;101361.28;10559607;28;20067;-67
2023/02/25 12:57:42;;;;;;;4.32;1.40;;;;;;;9.82;100.00;101367.47;10544959;28;20032;-67
2023/02/25 13:02:57;;;;;;;2.47;1.98;;;;;;;9.78;100.00;101358.88;10560012;28;20119;-67
2023/02/25 13:08:35;;;;;;;4.20;2.17;;;;;;;10.68;100.00;101362.63;10559122;28;20035;-67
2023/02/25 13:13:45;;;;;;;8.88;1.77;;;;;;;10.59;100.00;101355.63;10542285;28;20098;-68
2023/02/25 13:18:51;;;;;;;10.65;2.10;;;;;;;10.27;100.00;101357.63;10560160;28;20035;-67
2023/02/25 13:24:14;;;;;;;1.92;1.60;;;;;;;9.54;100.00;101365.31;10559432;28;20043;-67
2023/02/25 13:29:44;;;;;;;2.97;1.70;;;;;;;8.47;100.00;101374.91;10555910;28;20031;-67
2023/02/25 13:35:10;;;;;;;6.45;1.70;;;;;;;9.36;100.00;101372.03;10533252;28;20040;-67
2023/02/25 13:40:23;;;;;;;3.20;1.30;;;;;;;9.63;100.00;101373.38;10558348;28;20492;-67
2023/02/25 13:46:05;;;;;;;2.20;1.20;;;;;;;9.68;100.00;101373.69;10541664;28;20111;-67
2023/02/25 13:51:05;;;;;;;3.95;1.67;;;;;;;9.39;100.00;101377.94;10533306;28;20044;-68
2023/02/25 13:56:14;;;;;;;1.48;1.25;;;;;;;10.21;100.00;101370.03;10541225;28;20447;-67
2023/02/25 14:01:48;;;;;;;1.50;1.40;;;;;;;9.13;100.00;101383.63;10556913;28;20376;-68
2023/02/25 14:07:26;;;;;;;1.05;1.05;;;;;;;8.01;100.00;101398.88;10541787;28;20036;-67
2023/02/25 14:12:26;;;;;;;4.00;1.55;;;;;;;8.94;100.00;101403.81;10540942;28;20036;-67
2023/02/25 14:17:50;;;;;;;3.80;1.67;;;;;;;9.48;100.00;101412.00;10541064;28;20032;-67
2023/02/25 14:22:55;;;;;;;5.80;2.78;;;;;;;8.34;100.00;101415.06;10541224;28;20044;-68
2023/02/25 14:28:10;;;;;;;;;;;;;;;7.43;100.00;101426.75;10539850;28;20384;-67
2023/02/25 14:33:32;;;;;;;10.95;3.05;;;;;;;8.40;100.00;101425.19;10540526;28;19942;-67
2023/02/25 14:38:32;;;;;;;5.60;2.17;;;;;;;9.10;99.33;101432.63;10540676;28;20031;-67
2023/02/25 14:43:35;;;;;;;2.60;1.85;;;;;;;7.67;100.00;101445.69;10540252;28;20040;-66
2023/02/25 14:48:52;;;;;;;5.10;2.60;;;;;;;6.92;100.00;101450.09;10538873;28;20360;-67
2023/02/25 14:54:05;;;;;;;2.65;2.40;;;;;;;7.46;100.00;101462.28;10538310;28;20032;-66
2023/02/25 14:59:10;;;;;;;4.68;1.55;;;;;;;8.08;100.00;101464.63;10555513;28;20085;-67
2023/02/25 15:04:11;;;;;;;3.92;1.83;;;;;;;7.45;100.00;101479.47;10538366;28;20075;-66
2023/02/25 15:09:33;;;;;;;2.38;2.08;;;;;;;6.62;93.81;101484.59;10540319;28;20438;-69
2023/02/25 15:14:41;;;;;;;8.57;3.15;;;;;;;6.69;100.00;101499.09;10538940;28;20028;-66
2023/02/25 15:19:50;;;;;;;4.25;1.80;;;;;;;7.24;100.00;101497.91;10537943;28;20043;-69
2023/02/25 15:25:14;;;;;;;5.68;1.65;;;;;;;6.99;100.00;101500.47;10538798;28;20135;-69
2023/02/25 15:30:21;;;;;;;2.42;1.65;;;;;;;6.23;100.00;101511.84;10537905;28;20071;-69
2023/02/25 15:35:43;;;;;;;8.55;1.70;;;;;;;6.09;100.00;101515.06;10555491;28;20036;-68
2023/02/25 15:40:44;;;;;;;6.75;1.73;;;;;;;5.83;100.00;101514.94;10507456;28;20047;-67
2023/02/25 15:46:05;;;;;;;2.47;2.05;;;;;;;5.59;100.00;101510.16;10537376;28;20032;-67
2023/02/25 15:51:09;;;;;;;4.28;1.98;;;;;;;5.50;100.00;101519.94;10518620;28;20039;-66
2023/02/25 15:56:12;;;;;;;8.38;1.55;;;;;;;5.39;97.17;101530.03;10545619;28;20032;-65
2023/02/25 16:01:22;;;;;;;4.97;2.97;;;;;;;5.38;95.30;101539.09;10546580;28;20036;-66
2023/02/25 16:06:23;;;;;;;17.25;3.15;;;;;;;5.25;97.54;101544.78;10546102;28;20110;-66
2023/02/25 16:11:30;;;;;;;9.35;2.67;;;;;;;5.26;100.00;101554.53;10547654;28;20032;-66
2023/02/25 16:16:30;;;;;;;4.88;2.38;;;;;;;5.03;100.00;101570.97;10546259;28;20032;-65
2023/02/25 16:21:44;;;;;;;1.98;1.88;;;;;;;4.83;100.00;101574.72;10562850;28;20501;-66
2023/02/25 16:26:49;;;;;;;13.73;2.40;;;;;;;4.61;100.00;101581.22;10528228;28;20444;-66
2023/02/25 16:32:20;;;;;;;5.88;2.22;;;;;;;4.55;100.00;101590.66;10560772;28;20466;-68
2023/02/25 16:37:33;;;;;;;11.90;2.03;;;;;;;4.47;100.00;101600.41;10545850;28;20032;-66
2023/02/25 16:42:34;;;;;;;2.50;1.80;;;;;;;4.28;93.02;101610.16;10545646;28;20376;-66
2023/02/25 16:47:35;;;;;;;9.95;2.65;;;;;;;4.30;99.61;101613.50;10560683;28;20448;-66
2023/02/25 16:52:44;;;;;;;4.78;1.67;;;;;;;4.27;100.00;101624.53;10544145;28;20031;-66
2023/02/25 16:58:05;;;;;;;17.80;2.33;;;;;;;4.03;93.98;101629.44;10560287;28;20106;-66
2023/02/25 17:03:08;;;;;;;12.90;4.28;;;;;;;3.94;91.45;101634.59;10543470;28;20032;-66
2023/02/25 17:08:14;;;;;;;2.92;2.28;;;;;;;4.00;100.00;101635.06;10542981;28;20036;-66
2023/02/25 17:13:39;;;;;;;7.97;2.10;;;;;;;3.82;100.00;101637.53;10560322;28;20455;-66
2023/02/25 17:18:47;;;;;;;3.67;2.00;;;;;;;3.78;100.00;101647.66;10534372;28;20071;-66
2023/02/25 17:23:48;;;;;;;7.60;3.03;;;;;;;3.74;100.00;101654.28;10559183;28;20052;-66
2023/02/25 17:28:51;;;;;;;10.88;2.85;;;;;;;3.59;100.00;101651.09;10543177;28;20085;-66
2023/02/25 17:33:56;;;;;;;9.63;2.00;;;;;;;3.55;100.00;101670.25;10558872;28;20028;-66
2023/02/25 17:39:12;;;;;;;9.43;2.83;;;;;;;3.40;100.00;101665.22;10545852;28;20024;-66
2023/02/25 17:44:38;;;;;;;14.90;3.15;;;;;;;3.41;100.00;101672.28;10557892;28;20024;-66
2023/02/25 17:49:38;;;;;;;4.32;2.83;;;;;;;3.29;100.00;101670.69;10542532;28;20024;-66
2023/02/25 17:54:38;;;;;;;5.45;2.28;;;;;;;3.26;100.00;101678.97;10542059;28;20115;-66
2023/02/25 17:59:40;;;;;;;12.43;3.38;;;;;;;3.18;100.00;101684.13;10557439;28;20032;-65
2023/02/25 18:04:41;;;;;;;10.50;4.00;;;;;;;3.09;100.00;101688.41;10540188;28;20028;-66
2023/02/25 18:09:41;;;;;;;11.18;3.80;;;;;;;3.08;100.00;101699.25;10541767;28;20054;-66
2023/02/25 18:14:43;;;;;;;5.47;3.17;;;;;;;3.12;100.00;101706.03;10539295;28;20460;-65
2023/02/25 18:19:43;;;;;;;15.48;3.03;;;;;;;3.31;100.00;101710.69;10541320;28;20039;-65
2023/02/25 18:24:43;;;;;;;11.85;3.38;;;;;;;3.36;100.00;101721.88;10540520;28;20052;-65
2023/02/25 18:29:44;;;;;;;4.55;1.92;;;;;;;3.19;100.00;101729.50;10557479;28;20135;-66
2023/02/25 18:34:44;;;;;;;7.85;3.28;;;;;;;3.01;100.00;101739.06;10557745;28;20082;-66
2023/02/25 18:39:45;;;;;;;10.55;3.10;;;;;;;2.84;100.00;101743.13;10539989;28;20035;-66
2023/02/25 18:44:46;;;;;;;19.42;4.43;;;;;;;2.83;100.00;101760.16;10539184;28;20395;-65
2023/02/25 18:49:47;;;;;;;9.43;3.58;;;;;;;2.83;100.00;101762.81;10539039;28;20035;-66
2023/02/25 18:54:48;;;;;;;5.05;2.50;;;;;;;2.83;100.00;101770.84;10539957;28;20032;-66
2023/02/25 18:59:48;;;;;;;8.85;2.63;;;;;;;2.82;100.00;101768.31;10555143;28;20028;-66
2023/02/25 19:04:49;;;;;;;10.88;4.28;;;;;;;2.83;100.00;101767.31;10540321;28;20476;-66
2023/02/25 19:09:50;;;;;;;3.78;3.42;;;;;;;2.99;100.00;101781.13;10539977;28;20071;-66
2023/02/25 19:14:58;;;;;;;7.03;2.78;;;;;;;3.17;100.00;101786.81;10555354;28;20063;-66
2023/02/25 19:19:59;;;;;;;3.42;3.13;;;;;;;3.11;100.00;101788.16;10539144;28;20039;-66
2023/02/25 19:24:59;;;;;;;4.18;3.35;;;;;;;2.95;100.00;101782.38;10538297;28;20185;-66
2023/02/25 19:30:01;;;;;;;11.20;4.03;;;;;;;2.75;100.00;101789.34;10547058;28;20120;-66
2023/02/25 19:35:03;;;;;;;8.48;4.15;;;;;;;2.61;100.00;101793.13;10547720;28;20043;-65
2023/02/25 19:40:04;;;;;;;6.60;3.72;;;;;;;2.54;100.00;101798.13;10547490;28;20032;-66
2023/02/25 19:45:06;;;;;;;12.60;4.07;;;;;;;2.45;100.00;101803.34;10547267;28;20051;-66
2023/02/25 19:50:07;;;;;;;13.27;3.50;;;;;;;2.30;100.00;101798.28;10549006;28;20058;-65
2023/02/25 19:55:10;;;;;;;8.65;3.40;;;;;;;2.12;100.00;101809.56;10545840;28;20065;-66
2023/02/25 20:00:13;;;;;;;4.53;2.88;;;;;;;2.06;100.00;101813.56;10562884;28;20036;-66
2023/02/25 20:05:14;;;;;;;5.13;4.20;;;;;;;1.95;100.00;101809.06;10545154;28;20514;-65
2023/02/25 20:10:15;;;;;;;7.40;3.15;;;;;;;1.85;100.00;101821.41;10545365;28;20042;-66
2023/02/25 20:15:15;;;;;;;6.75;2.60;;;;;;;1.72;100.00;101829.50;10544915;28;20060;-66
2023/02/25 20:20:16;;;;;;;5.38;2.97;;;;;;;1.63;100.00;101832.91;10561832;28;20425;-66
2023/02/25 20:25:17;;;;;;;5.05;3.38;;;;;;;1.60;100.00;101830.47;10547318;28;20056;-66
2023/02/25 20:30:17;;;;;;;3.63;3.08;;;;;;;1.51;100.00;101840.00;10545491;28;20372;-66
2023/02/25 20:35:19;;;;;;;8.07;3.83;;;;;;;1.42;100.00;101840.69;10545901;28;20460;-66
2023/02/25 20:40:20;;;;;;;10.57;3.95;;;;;;;1.46;100.00;101847.50;10543079;28;20032;-65
2023/02/25 20:45:21;;;;;;;4.55;3.17;;;;;;;1.42;100.00;101851.38;10545623;28;20377;-65
2023/02/25 20:50:23;;;;;;;7.40;3.33;;;;;;;1.48;100.00;101853.59;10545354;28;20036;-66
2023/02/25 20:55:23;;;;;;;12.38;4.45;;;;;;;1.51;100.00;101866.69;10544468;28;20070;-66
2023/02/25 21:00:24;;;;;;;13.73;4.05;;;;;;;1.49;100.00;101857.09;10561355;28;20113;-65
2023/02/25 21:05:25;;;;;;;12.00;3.75;;;;;;;1.40;100.00;101863.97;10545191;28;20071;-65
2023/02/25 21:10:25;;;;;;;3.88;3.08;;;;;;;1.39;100.00;101875.63;10545172;28;20054;-65
2023/02/25 21:15:26;;;;;;;6.85;4.20;;;;;;;1.40;100.00;101885.31;10544228;28;20028;-65
2023/02/25 21:20:26;;;;;;;9.02;4.78;;;;;;;1.39;100.00;101895.16;10542384;28;20078;-65
2023/02/25 21:25:26;;;;;;;6.20;2.78;;;;;;;1.36;100.00;101891.84;10543770;28;20055;-65
2023/02/25 21:30:27;;;;;;;5.30;2.40;;;;;;;1.32;100.00;101898.41;10543212;28;20118;-66
2023/02/25 21:35:27;;;;;;;6.65;3.60;;;;;;;1.35;100.00;101900.84;10542305;28;20115;-66
2023/02/25 21:40:28;;;;;;;6.63;3.00;;;;;;;1.33;100.00;101900.94;10542313;28;20432;-66
2023/02/25 21:45:28;;;;;;;3.50;2.42;;;;;;;1.24;100.00;101901.59;10542046;28;20047;-65
2023/02/25 21:50:29;;;;;;;7.93;2.83;;;;;;;1.23;100.00;101899.91;10541147;28;20024;-65
2023/02/25 21:55:29;;;;;;;4.45;2.63;;;;;;;1.20;100.00;101907.28;10541309;28;20073;-66
2023/02/25 22:00:30;;;;;;;10.85;3.63;;;;;;;1.25;100.00;101918.50;10542998;28;20046;-65
2023/02/25 22:05:31;;;;;;;15.27;3.30;;;;;;;1.28;100.00;101920.94;10542454;28;20074;-66
2023/02/25 22:10:34;;;;;;;5.13;2.70;;;;;;;1.25;100.00;101927.34;10559064;28;20032;-66
2023/02/25 22:15:35;;;;;;;7.38;3.08;;;;;;;1.21;100.00;101933.84;10540807;28;20371;-65
2023/02/25 22:20:35;;;;;;;5.60;2.55;;;;;;;1.14;100.00;101928.09;10540856;28;20034;-66
2023/02/25 22:25:36;;;;;;;10.85;2.65;;;;;;;1.15;100.00;101934.31;10540760;28;20056;-65
2023/02/25 22:30:36;;;;;;;12.65;4.50;;;;;;;1.23;100.00;101933.75;10540290;28;20047;-66
2023/02/25 22:35:36;;;;;;;4.20;2.95;;;;;;;1.55;100.00;101928.72;10541750;28;20068;-65
2023/02/25 22:40:37;;;;;;;14.07;4.38;;;;;;;1.89;100.00;101932.41;10540605;28;20035;-66
2023/02/25 22:45:37;;;;;;;7.00;2.80;;;;;;;2.15;100.00;101929.56;10556290;28;20063;-67
2023/02/25 22:50:42;;;;;;;6.07;3.72;;;;;;;2.33;100.00;101939.69;10540428;28;20059;-65
2023/02/25 22:55:42;;;;;;;7.97;4.22;;;;;;;2.51;100.00;101929.38;10555385;28;20051;-66
2023/02/25 23:00:43;;;;;;;6.72;4.00;;;;;;;2.66;100.00;101940.72;10540482;28;20024;-66
2023/02/25 23:05:44;;;;;;;3.38;2.80;;;;;;;2.75;100.00;101933.78;10540438;28;20024;-66
2023/02/25 23:10:44;;;;;;;7.10;3.58;;;;;;;2.81;100.00;101941.34;10539282;28;20423;-66
2023/02/25 23:15:46;;;;;;;6.97;4.22;;;;;;;2.86;100.00;101941.78;10538420;28;20114;-66